sensor_id;sensor_type;location;lat;lon;timestamp;temperature;humidity
28763;DHT22;15918;51.270;6.522;2022-09-09T00:04:31;22.10;61.80
28763;DHT22;15918;51.270;6.522;2022-09-09T00:09:53;22.10;62.00
28763;DHT22;15918;51.270;6.522;2022-09-09T00:15:10;22.10;61.80
28763;DHT22;15918;51.270;6.522;2022-09-09T00:21:00;22.10;61.70
28763;DHT22;15918;51.270;6.522;2022-09-09T00:23:30;22.00;61.90
28763;DHT22;15918;51.270;6.522;2022-09-09T00:26:35;22.00;62.10
28763;DHT22;15918;51.270;6.522;2022-09-09T00:29:05;22.10;62.00
28763;DHT22;15918;51.270;6.522;2022-09-09T00:31:35;22.00;62.10
28763;DHT22;15918;51.270;6.522;2022-09-09T00:34:17;22.00;62.20
28763;DHT22;15918;51.270;6.522;2022-09-09T00:36:45;22.00;61.90
28763;DHT22;15918;51.270;6.522;2022-09-09T00:39:30;22.00;62.00
28763;DHT22;15918;51.270;6.522;2022-09-09T00:42:19;22.00;61.60
28763;DHT22;15918;51.270;6.522;2022-09-09T00:44:56;22.00;62.00
28763;DHT22;15918;51.270;6.522;2022-09-09T00:50:15;22.00;62.00
28763;DHT22;15918;51.270;6.522;2022-09-09T00:56:14;21.90;61.90
28763;DHT22;15918;51.270;6.522;2022-09-09T00:59:00;21.90;61.90
28763;DHT22;15918;51.270;6.522;2022-09-09T01:01:29;21.90;61.90
28763;DHT22;15918;51.270;6.522;2022-09-09T01:03:56;21.90;62.00
28763;DHT22;15918;51.270;6.522;2022-09-09T01:06:35;21.90;61.90
28763;DHT22;15918;51.270;6.522;2022-09-09T01:11:57;21.90;61.80
28763;DHT22;15918;51.270;6.522;2022-09-09T01:14:42;21.90;61.80
28763;DHT22;15918;51.270;6.522;2022-09-09T01:27:22;21.90;61.80
28763;DHT22;15918;51.270;6.522;2022-09-09T01:29:48;21.90;61.90
28763;DHT22;15918;51.270;6.522;2022-09-09T01:32:40;21.80;61.90
28763;DHT22;15918;51.270;6.522;2022-09-09T01:35:12;21.90;61.80
28763;DHT22;15918;51.270;6.522;2022-09-09T01:37:40;21.80;61.60
28763;DHT22;15918;51.270;6.522;2022-09-09T01:40:06;21.80;61.80
28763;DHT22;15918;51.270;6.522;2022-09-09T01:42:31;21.80;61.90
28763;DHT22;15918;51.270;6.522;2022-09-09T01:44:57;21.80;62.00
28763;DHT22;15918;51.270;6.522;2022-09-09T01:47:23;21.80;61.90
28763;DHT22;15918;51.270;6.522;2022-09-09T01:49:48;21.80;61.90
28763;DHT22;15918;51.270;6.522;2022-09-09T01:52:14;21.80;61.90
28763;DHT22;15918;51.270;6.522;2022-09-09T01:54:39;21.80;61.80
28763;DHT22;15918;51.270;6.522;2022-09-09T02:07:40;21.80;61.90
28763;DHT22;15918;51.270;6.522;2022-09-09T02:10:34;21.80;61.90
28763;DHT22;15918;51.270;6.522;2022-09-09T02:13:07;21.80;61.60
28763;DHT22;15918;51.270;6.522;2022-09-09T02:15:45;21.80;62.00
28763;DHT22;15918;51.270;6.522;2022-09-09T02:18:14;21.70;61.60
28763;DHT22;15918;51.270;6.522;2022-09-09T02:20:45;21.70;61.90
28763;DHT22;15918;51.270;6.522;2022-09-09T02:23:11;21.70;62.00
28763;DHT22;15918;51.270;6.522;2022-09-09T02:25:39;21.70;61.90
28763;DHT22;15918;51.270;6.522;2022-09-09T02:28:07;21.70;61.90
28763;DHT22;15918;51.270;6.522;2022-09-09T02:30:35;21.80;61.90
28763;DHT22;15918;51.270;6.522;2022-09-09T02:33:03;21.70;61.90
28763;DHT22;15918;51.270;6.522;2022-09-09T02:35:32;21.70;61.70
28763;DHT22;15918;51.270;6.522;2022-09-09T02:38:01;21.70;61.70
28763;DHT22;15918;51.270;6.522;2022-09-09T02:40:28;21.60;61.80
28763;DHT22;15918;51.270;6.522;2022-09-09T02:42:54;21.70;61.90
28763;DHT22;15918;51.270;6.522;2022-09-09T02:45:24;21.70;61.70
28763;DHT22;15918;51.270;6.522;2022-09-09T02:51:00;21.60;61.90
28763;DHT22;15918;51.270;6.522;2022-09-09T02:53:58;21.60;62.00
28763;DHT22;15918;51.270;6.522;2022-09-09T02:56:27;21.60;61.40
28763;DHT22;15918;51.270;6.522;2022-09-09T02:58:54;21.60;62.00
28763;DHT22;15918;51.270;6.522;2022-09-09T03:01:21;21.60;62.10
28763;DHT22;15918;51.270;6.522;2022-09-09T03:03:46;21.60;62.20
28763;DHT22;15918;51.270;6.522;2022-09-09T03:06:12;21.60;62.20
28763;DHT22;15918;51.270;6.522;2022-09-09T03:08:38;21.60;62.10
28763;DHT22;15918;51.270;6.522;2022-09-09T03:11:04;21.60;62.20
28763;DHT22;15918;51.270;6.522;2022-09-09T03:13:29;21.60;62.30
28763;DHT22;15918;51.270;6.522;2022-09-09T03:15:55;21.50;62.00
28763;DHT22;15918;51.270;6.522;2022-09-09T03:18:21;21.60;62.30
28763;DHT22;15918;51.270;6.522;2022-09-09T03:20:47;21.50;62.20
28763;DHT22;15918;51.270;6.522;2022-09-09T03:23:16;21.50;62.10
28763;DHT22;15918;51.270;6.522;2022-09-09T03:25:51;21.50;62.00
28763;DHT22;15918;51.270;6.522;2022-09-09T03:28:17;21.50;62.00
28763;DHT22;15918;51.270;6.522;2022-09-09T03:30:43;21.50;62.20
28763;DHT22;15918;51.270;6.522;2022-09-09T03:33:09;21.50;62.20
28763;DHT22;15918;51.270;6.522;2022-09-09T03:35:35;21.50;62.00
28763;DHT22;15918;51.270;6.522;2022-09-09T03:38:01;21.50;62.10
28763;DHT22;15918;51.270;6.522;2022-09-09T03:40:27;21.50;62.00
28763;DHT22;15918;51.270;6.522;2022-09-09T03:42:52;21.50;62.00
28763;DHT22;15918;51.270;6.522;2022-09-09T03:45:18;21.50;62.00
28763;DHT22;15918;51.270;6.522;2022-09-09T03:47:43;21.50;61.90
28763;DHT22;15918;51.270;6.522;2022-09-09T03:50:10;21.50;62.00
28763;DHT22;15918;51.270;6.522;2022-09-09T03:52:40;21.50;62.10
28763;DHT22;15918;51.270;6.522;2022-09-09T03:55:07;21.50;62.10
28763;DHT22;15918;51.270;6.522;2022-09-09T03:57:34;21.50;62.20
28763;DHT22;15918;51.270;6.522;2022-09-09T04:00:05;21.40;62.10
28763;DHT22;15918;51.270;6.522;2022-09-09T04:02:32;21.40;61.70
28763;DHT22;15918;51.270;6.522;2022-09-09T04:04:58;21.40;62.00
28763;DHT22;15918;51.270;6.522;2022-09-09T04:07:25;21.40;62.10
28763;DHT22;15918;51.270;6.522;2022-09-09T04:09:52;21.40;62.10
28763;DHT22;15918;51.270;6.522;2022-09-09T04:12:18;21.40;62.10
28763;DHT22;15918;51.270;6.522;2022-09-09T04:14:44;21.40;62.20
28763;DHT22;15918;51.270;6.522;2022-09-09T04:17:09;21.40;62.30
28763;DHT22;15918;51.270;6.522;2022-09-09T04:19:35;21.40;62.40
28763;DHT22;15918;51.270;6.522;2022-09-09T04:22:00;21.40;62.30
28763;DHT22;15918;51.270;6.522;2022-09-09T04:24:26;21.40;62.50
28763;DHT22;15918;51.270;6.522;2022-09-09T04:26:52;21.30;62.40
28763;DHT22;15918;51.270;6.522;2022-09-09T04:29:18;21.40;62.50
28763;DHT22;15918;51.270;6.522;2022-09-09T04:31:43;21.40;62.60
28763;DHT22;15918;51.270;6.522;2022-09-09T04:34:09;21.30;62.60
28763;DHT22;15918;51.270;6.522;2022-09-09T04:36:35;21.30;62.70
28763;DHT22;15918;51.270;6.522;2022-09-09T04:39:01;21.30;62.70
28763;DHT22;15918;51.270;6.522;2022-09-09T04:41:28;21.30;62.60
28763;DHT22;15918;51.270;6.522;2022-09-09T04:43:54;21.30;62.30
28763;DHT22;15918;51.270;6.522;2022-09-09T04:46:20;21.40;62.50
28763;DHT22;15918;51.270;6.522;2022-09-09T04:48:48;21.30;62.70
28763;DHT22;15918;51.270;6.522;2022-09-09T04:51:15;21.30;62.60
28763;DHT22;15918;51.270;6.522;2022-09-09T04:53:41;21.30;62.80
28763;DHT22;15918;51.270;6.522;2022-09-09T04:56:07;21.30;62.80
28763;DHT22;15918;51.270;6.522;2022-09-09T04:58:36;21.30;62.70
28763;DHT22;15918;51.270;6.522;2022-09-09T05:01:14;21.30;62.90
28763;DHT22;15918;51.270;6.522;2022-09-09T05:03:40;21.30;62.90
28763;DHT22;15918;51.270;6.522;2022-09-09T05:06:17;21.30;63.00
28763;DHT22;15918;51.270;6.522;2022-09-09T05:08:43;21.30;63.00
28763;DHT22;15918;51.270;6.522;2022-09-09T05:11:21;21.20;63.10
28763;DHT22;15918;51.270;6.522;2022-09-09T05:13:49;21.30;63.00
28763;DHT22;15918;51.270;6.522;2022-09-09T05:16:16;21.30;63.10
28763;DHT22;15918;51.270;6.522;2022-09-09T05:18:42;21.30;63.20
28763;DHT22;15918;51.270;6.522;2022-09-09T05:21:09;21.20;63.20
28763;DHT22;15918;51.270;6.522;2022-09-09T05:23:35;21.20;63.30
28763;DHT22;15918;51.270;6.522;2022-09-09T05:26:01;21.20;63.30
28763;DHT22;15918;51.270;6.522;2022-09-09T05:28:27;21.20;63.30
28763;DHT22;15918;51.270;6.522;2022-09-09T05:31:01;21.20;63.30
28763;DHT22;15918;51.270;6.522;2022-09-09T05:33:29;21.30;63.40
28763;DHT22;15918;51.270;6.522;2022-09-09T05:35:59;21.20;63.40
28763;DHT22;15918;51.270;6.522;2022-09-09T05:38:25;21.20;63.50
28763;DHT22;15918;51.270;6.522;2022-09-09T05:40:52;21.20;63.40
28763;DHT22;15918;51.270;6.522;2022-09-09T05:43:20;21.20;63.50
28763;DHT22;15918;51.270;6.522;2022-09-09T05:45:47;21.20;63.50
28763;DHT22;15918;51.270;6.522;2022-09-09T05:48:13;21.20;63.50
28763;DHT22;15918;51.270;6.522;2022-09-09T05:50:40;21.20;63.50
28763;DHT22;15918;51.270;6.522;2022-09-09T05:53:06;21.20;63.60
28763;DHT22;15918;51.270;6.522;2022-09-09T05:55:31;21.30;63.70
28763;DHT22;15918;51.270;6.522;2022-09-09T05:57:57;21.20;63.50
28763;DHT22;15918;51.270;6.522;2022-09-09T06:00:23;21.20;63.50
28763;DHT22;15918;51.270;6.522;2022-09-09T06:02:52;21.20;63.50
28763;DHT22;15918;51.270;6.522;2022-09-09T06:05:19;21.20;63.50
28763;DHT22;15918;51.270;6.522;2022-09-09T06:07:44;21.20;63.60
28763;DHT22;15918;51.270;6.522;2022-09-09T06:10:11;21.20;63.30
28763;DHT22;15918;51.270;6.522;2022-09-09T06:12:39;21.20;63.40
28763;DHT22;15918;51.270;6.522;2022-09-09T06:15:05;21.20;63.30
28763;DHT22;15918;51.270;6.522;2022-09-09T06:17:31;21.20;63.10
28763;DHT22;15918;51.270;6.522;2022-09-09T06:19:56;21.20;63.20
28763;DHT22;15918;51.270;6.522;2022-09-09T06:22:22;21.10;63.10
28763;DHT22;15918;51.270;6.522;2022-09-09T06:24:48;21.20;63.10
28763;DHT22;15918;51.270;6.522;2022-09-09T06:27:13;21.20;63.20
28763;DHT22;15918;51.270;6.522;2022-09-09T06:29:39;21.20;63.20
28763;DHT22;15918;51.270;6.522;2022-09-09T06:32:04;21.20;63.40
28763;DHT22;15918;51.270;6.522;2022-09-09T06:34:30;21.10;63.10
28763;DHT22;15918;51.270;6.522;2022-09-09T06:36:56;21.10;62.80
28763;DHT22;15918;51.270;6.522;2022-09-09T06:39:23;21.10;63.00
28763;DHT22;15918;51.270;6.522;2022-09-09T06:41:49;21.20;62.90
28763;DHT22;15918;51.270;6.522;2022-09-09T06:44:15;21.20;63.00
28763;DHT22;15918;51.270;6.522;2022-09-09T06:46:41;21.20;63.10
28763;DHT22;15918;51.270;6.522;2022-09-09T06:49:08;21.20;63.10
28763;DHT22;15918;51.270;6.522;2022-09-09T06:51:36;21.20;62.80
28763;DHT22;15918;51.270;6.522;2022-09-09T06:54:03;21.20;62.70
28763;DHT22;15918;51.270;6.522;2022-09-09T06:56:37;21.20;62.80
28763;DHT22;15918;51.270;6.522;2022-09-09T06:59:07;21.20;62.90
28763;DHT22;15918;51.270;6.522;2022-09-09T07:01:39;21.20;63.00
28763;DHT22;15918;51.270;6.522;2022-09-09T07:04:14;21.30;62.90
28763;DHT22;15918;51.270;6.522;2022-09-09T07:06:42;21.30;62.90
28763;DHT22;15918;51.270;6.522;2022-09-09T07:09:11;21.30;62.90
28763;DHT22;15918;51.270;6.522;2022-09-09T07:11:58;21.30;62.70
28763;DHT22;15918;51.270;6.522;2022-09-09T07:14:24;21.30;62.80
28763;DHT22;15918;51.270;6.522;2022-09-09T07:16:50;21.30;62.90
28763;DHT22;15918;51.270;6.522;2022-09-09T07:19:16;21.30;62.90
28763;DHT22;15918;51.270;6.522;2022-09-09T07:21:42;21.30;63.00
28763;DHT22;15918;51.270;6.522;2022-09-09T07:24:08;21.30;62.90
28763;DHT22;15918;51.270;6.522;2022-09-09T07:26:36;21.40;62.90
28763;DHT22;15918;51.270;6.522;2022-09-09T07:29:02;21.30;62.80
28763;DHT22;15918;51.270;6.522;2022-09-09T07:31:31;21.40;62.90
28763;DHT22;15918;51.270;6.522;2022-09-09T07:33:57;21.40;62.80
28763;DHT22;15918;51.270;6.522;2022-09-09T07:36:25;21.40;62.90
28763;DHT22;15918;51.270;6.522;2022-09-09T07:38:54;21.40;62.90
28763;DHT22;15918;51.270;6.522;2022-09-09T07:41:36;21.40;62.80
28763;DHT22;15918;51.270;6.522;2022-09-09T07:44:25;21.50;62.60
28763;DHT22;15918;51.270;6.522;2022-09-09T07:46:52;21.50;62.30
28763;DHT22;15918;51.270;6.522;2022-09-09T07:49:18;21.50;62.40
28763;DHT22;15918;51.270;6.522;2022-09-09T07:51:45;21.50;63.00
28763;DHT22;15918;51.270;6.522;2022-09-09T07:54:13;21.50;62.30
28763;DHT22;15918;51.270;6.522;2022-09-09T07:56:41;21.50;62.20
28763;DHT22;15918;51.270;6.522;2022-09-09T07:59:07;21.50;62.10
28763;DHT22;15918;51.270;6.522;2022-09-09T08:01:38;21.50;62.00
28763;DHT22;15918;51.270;6.522;2022-09-09T08:04:16;21.50;61.70
28763;DHT22;15918;51.270;6.522;2022-09-09T08:06:44;21.50;61.50
28763;DHT22;15918;51.270;6.522;2022-09-09T08:09:11;21.60;61.40
28763;DHT22;15918;51.270;6.522;2022-09-09T08:11:38;21.60;61.20
28763;DHT22;15918;51.270;6.522;2022-09-09T08:14:05;21.60;61.00
28763;DHT22;15918;51.270;6.522;2022-09-09T08:16:35;21.60;60.90
28763;DHT22;15918;51.270;6.522;2022-09-09T08:19:02;21.60;61.00
28763;DHT22;15918;51.270;6.522;2022-09-09T08:21:30;21.60;60.90
28763;DHT22;15918;51.270;6.522;2022-09-09T08:23:58;21.70;61.00
28763;DHT22;15918;51.270;6.522;2022-09-09T08:26:29;21.70;61.10
28763;DHT22;15918;51.270;6.522;2022-09-09T08:28:56;21.70;60.90
28763;DHT22;15918;51.270;6.522;2022-09-09T08:31:25;21.80;60.70
28763;DHT22;15918;51.270;6.522;2022-09-09T08:33:51;21.80;60.40
28763;DHT22;15918;51.270;6.522;2022-09-09T08:36:19;21.80;60.30
28763;DHT22;15918;51.270;6.522;2022-09-09T08:38:49;21.80;60.30
28763;DHT22;15918;51.270;6.522;2022-09-09T08:47:22;21.80;59.80
28763;DHT22;15918;51.270;6.522;2022-09-09T08:57:49;21.90;59.80
28763;DHT22;15918;51.270;6.522;2022-09-09T09:00:17;21.90;59.80
28763;DHT22;15918;51.270;6.522;2022-09-09T09:08:48;21.90;59.40
28763;DHT22;15918;51.270;6.522;2022-09-09T09:11:17;21.90;59.30
28763;DHT22;15918;51.270;6.522;2022-09-09T09:13:44;21.90;59.20
28763;DHT22;15918;51.270;6.522;2022-09-09T09:16:34;21.90;59.20
28763;DHT22;15918;51.270;6.522;2022-09-09T09:19:02;21.90;58.90
28763;DHT22;15918;51.270;6.522;2022-09-09T09:21:42;21.90;59.00
28763;DHT22;15918;51.270;6.522;2022-09-09T09:24:20;21.90;58.70
28763;DHT22;15918;51.270;6.522;2022-09-09T09:26:48;21.90;58.70
28763;DHT22;15918;51.270;6.522;2022-09-09T09:29:17;21.90;58.60
28763;DHT22;15918;51.270;6.522;2022-09-09T09:31:47;21.90;58.50
28763;DHT22;15918;51.270;6.522;2022-09-09T09:34:14;21.90;58.30
28763;DHT22;15918;51.270;6.522;2022-09-09T09:36:45;22.00;58.30
28763;DHT22;15918;51.270;6.522;2022-09-09T09:39:26;22.00;58.20
28763;DHT22;15918;51.270;6.522;2022-09-09T09:41:52;22.00;58.10
28763;DHT22;15918;51.270;6.522;2022-09-09T09:46:49;22.00;58.00
28763;DHT22;15918;51.270;6.522;2022-09-09T09:49:14;22.00;58.10
28763;DHT22;15918;51.270;6.522;2022-09-09T09:51:40;22.10;57.90
28763;DHT22;15918;51.270;6.522;2022-09-09T09:54:28;22.10;57.80
28763;DHT22;15918;51.270;6.522;2022-09-09T09:56:55;22.10;57.50
28763;DHT22;15918;51.270;6.522;2022-09-09T09:59:35;22.10;57.50
28763;DHT22;15918;51.270;6.522;2022-09-09T10:02:14;22.10;57.30
28763;DHT22;15918;51.270;6.522;2022-09-09T10:04:40;22.10;57.30
28763;DHT22;15918;51.270;6.522;2022-09-09T10:07:20;22.20;57.40
28763;DHT22;15918;51.270;6.522;2022-09-09T10:09:52;22.20;57.30
28763;DHT22;15918;51.270;6.522;2022-09-09T10:12:42;22.10;57.20
28763;DHT22;15918;51.270;6.522;2022-09-09T10:22:37;22.20;57.10
28763;DHT22;15918;51.270;6.522;2022-09-09T10:27:52;22.20;57.10
28763;DHT22;15918;51.270;6.522;2022-09-09T10:30:27;22.20;57.10
28763;DHT22;15918;51.270;6.522;2022-09-09T10:33:13;22.20;57.20
28763;DHT22;15918;51.270;6.522;2022-09-09T10:36:00;22.20;57.20
28763;DHT22;15918;51.270;6.522;2022-09-09T10:38:48;22.20;57.30
28763;DHT22;15918;51.270;6.522;2022-09-09T10:55:24;22.20;56.80
28763;DHT22;15918;51.270;6.522;2022-09-09T10:57:53;22.30;56.60
28763;DHT22;15918;51.270;6.522;2022-09-09T11:00:38;22.20;56.50
28763;DHT22;15918;51.270;6.522;2022-09-09T11:03:05;22.20;56.40
28763;DHT22;15918;51.270;6.522;2022-09-09T11:05:42;22.30;56.60
28763;DHT22;15918;51.270;6.522;2022-09-09T11:08:29;22.20;56.50
28763;DHT22;15918;51.270;6.522;2022-09-09T11:11:03;22.20;56.50
28763;DHT22;15918;51.270;6.522;2022-09-09T11:18:53;22.30;56.30
28763;DHT22;15918;51.270;6.522;2022-09-09T11:21:32;22.30;56.20
28763;DHT22;15918;51.270;6.522;2022-09-09T11:24:04;22.30;56.00
28763;DHT22;15918;51.270;6.522;2022-09-09T11:27:03;22.30;56.10
28763;DHT22;15918;51.270;6.522;2022-09-09T11:30:10;22.30;56.00
28763;DHT22;15918;51.270;6.522;2022-09-09T11:41:05;22.30;56.30
28763;DHT22;15918;51.270;6.522;2022-09-09T11:43:45;22.30;56.30
28763;DHT22;15918;51.270;6.522;2022-09-09T11:46:13;22.40;56.30
28763;DHT22;15918;51.270;6.522;2022-09-09T11:48:59;22.30;56.30
28763;DHT22;15918;51.270;6.522;2022-09-09T11:51:28;22.40;56.30
28763;DHT22;15918;51.270;6.522;2022-09-09T11:53:57;22.40;56.40
28763;DHT22;15918;51.270;6.522;2022-09-09T11:56:42;22.40;56.40
28763;DHT22;15918;51.270;6.522;2022-09-09T11:59:26;22.40;56.50
28763;DHT22;15918;51.270;6.522;2022-09-09T12:02:16;22.40;56.30
28763;DHT22;15918;51.270;6.522;2022-09-09T12:05:07;22.40;56.20
28763;DHT22;15918;51.270;6.522;2022-09-09T12:07:38;22.40;56.10
28763;DHT22;15918;51.270;6.522;2022-09-09T12:10:40;22.40;56.20
28763;DHT22;15918;51.270;6.522;2022-09-09T12:13:23;22.40;56.80
28763;DHT22;15918;51.270;6.522;2022-09-09T12:15:59;22.40;57.60
28763;DHT22;15918;51.270;6.522;2022-09-09T12:18:36;22.40;58.20
28763;DHT22;15918;51.270;6.522;2022-09-09T12:24:02;22.40;59.10
28763;DHT22;15918;51.270;6.522;2022-09-09T12:31:48;22.40;59.80
28763;DHT22;15918;51.270;6.522;2022-09-09T12:37:14;22.30;60.30
28763;DHT22;15918;51.270;6.522;2022-09-09T12:39:47;22.30;60.50
28763;DHT22;15918;51.270;6.522;2022-09-09T12:42:20;22.30;60.90
28763;DHT22;15918;51.270;6.522;2022-09-09T12:44:59;22.30;61.20
28763;DHT22;15918;51.270;6.522;2022-09-09T12:47:40;22.30;61.50
28763;DHT22;15918;51.270;6.522;2022-09-09T12:50:21;22.30;61.70
28763;DHT22;15918;51.270;6.522;2022-09-09T12:52:48;22.30;61.60
28763;DHT22;15918;51.270;6.522;2022-09-09T12:55:21;22.20;62.10
28763;DHT22;15918;51.270;6.522;2022-09-09T12:57:50;22.20;62.00
28763;DHT22;15918;51.270;6.522;2022-09-09T13:00:20;22.20;62.20
28763;DHT22;15918;51.270;6.522;2022-09-09T13:02:51;22.20;62.60
28763;DHT22;15918;51.270;6.522;2022-09-09T13:05:20;22.20;62.80
28763;DHT22;15918;51.270;6.522;2022-09-09T13:07:46;22.20;63.00
28763;DHT22;15918;51.270;6.522;2022-09-09T13:10:14;22.20;63.20
28763;DHT22;15918;51.270;6.522;2022-09-09T13:12:41;22.20;63.30
28763;DHT22;15918;51.270;6.522;2022-09-09T13:15:19;22.30;63.40
28763;DHT22;15918;51.270;6.522;2022-09-09T13:17:50;22.30;63.30
28763;DHT22;15918;51.270;6.522;2022-09-09T13:20:18;22.30;63.40
28763;DHT22;15918;51.270;6.522;2022-09-09T13:22:44;22.30;63.40
28763;DHT22;15918;51.270;6.522;2022-09-09T13:27:39;22.30;63.40
28763;DHT22;15918;51.270;6.522;2022-09-09T13:30:35;22.30;63.20
28763;DHT22;15918;51.270;6.522;2022-09-09T13:35:35;22.30;63.20
28763;DHT22;15918;51.270;6.522;2022-09-09T13:38:14;22.40;63.20
28763;DHT22;15918;51.270;6.522;2022-09-09T13:40:40;22.40;63.10
28763;DHT22;15918;51.270;6.522;2022-09-09T13:43:17;22.40;63.00
28763;DHT22;15918;51.270;6.522;2022-09-09T13:45:53;22.40;62.70
28763;DHT22;15918;51.270;6.522;2022-09-09T13:48:19;22.40;62.50
28763;DHT22;15918;51.270;6.522;2022-09-09T13:53:22;22.40;62.50
28763;DHT22;15918;51.270;6.522;2022-09-09T13:55:48;22.40;62.40
28763;DHT22;15918;51.270;6.522;2022-09-09T13:58:15;22.40;62.30
28763;DHT22;15918;51.270;6.522;2022-09-09T14:00:42;22.40;62.20
28763;DHT22;15918;51.270;6.522;2022-09-09T14:03:09;22.40;62.10
28763;DHT22;15918;51.270;6.522;2022-09-09T14:05:35;22.40;62.00
28763;DHT22;15918;51.270;6.522;2022-09-09T14:08:04;22.50;61.80
28763;DHT22;15918;51.270;6.522;2022-09-09T14:10:30;22.50;61.60
28763;DHT22;15918;51.270;6.522;2022-09-09T14:13:02;22.40;61.40
28763;DHT22;15918;51.270;6.522;2022-09-09T14:15:28;22.40;61.70
28763;DHT22;15918;51.270;6.522;2022-09-09T14:17:54;22.50;62.00
28763;DHT22;15918;51.270;6.522;2022-09-09T14:20:20;22.40;62.30
28763;DHT22;15918;51.270;6.522;2022-09-09T14:22:46;22.40;62.40
28763;DHT22;15918;51.270;6.522;2022-09-09T14:25:12;22.30;62.50
28763;DHT22;15918;51.270;6.522;2022-09-09T14:27:40;22.20;62.70
28763;DHT22;15918;51.270;6.522;2022-09-09T14:30:08;22.20;62.40
28763;DHT22;15918;51.270;6.522;2022-09-09T14:32:33;22.20;62.50
28763;DHT22;15918;51.270;6.522;2022-09-09T14:34:59;22.30;62.60
28763;DHT22;15918;51.270;6.522;2022-09-09T14:37:25;22.10;62.50
28763;DHT22;15918;51.270;6.522;2022-09-09T14:39:51;22.20;62.60
28763;DHT22;15918;51.270;6.522;2022-09-09T14:42:17;22.10;62.50
28763;DHT22;15918;51.270;6.522;2022-09-09T14:44:43;22.10;62.90
28763;DHT22;15918;51.270;6.522;2022-09-09T14:47:09;22.00;63.00
28763;DHT22;15918;51.270;6.522;2022-09-09T14:49:35;22.00;63.10
28763;DHT22;15918;51.270;6.522;2022-09-09T14:52:01;22.00;63.20
28763;DHT22;15918;51.270;6.522;2022-09-09T14:54:27;22.00;63.30
28763;DHT22;15918;51.270;6.522;2022-09-09T14:56:53;22.00;63.30
28763;DHT22;15918;51.270;6.522;2022-09-09T14:59:19;22.00;63.00
28763;DHT22;15918;51.270;6.522;2022-09-09T15:01:44;22.00;62.90
28763;DHT22;15918;51.270;6.522;2022-09-09T15:04:12;22.00;62.80
28763;DHT22;15918;51.270;6.522;2022-09-09T15:06:38;22.00;62.80
28763;DHT22;15918;51.270;6.522;2022-09-09T15:09:05;22.00;62.70
28763;DHT22;15918;51.270;6.522;2022-09-09T15:11:34;22.00;62.60
28763;DHT22;15918;51.270;6.522;2022-09-09T15:14:03;22.00;62.90
28763;DHT22;15918;51.270;6.522;2022-09-09T15:16:29;22.00;62.80
28763;DHT22;15918;51.270;6.522;2022-09-09T15:18:57;22.00;62.80
28763;DHT22;15918;51.270;6.522;2022-09-09T15:21:25;22.00;63.00
28763;DHT22;15918;51.270;6.522;2022-09-09T15:23:52;22.00;62.60
28763;DHT22;15918;51.270;6.522;2022-09-09T15:26:18;22.00;62.70
28763;DHT22;15918;51.270;6.522;2022-09-09T15:28:45;22.10;62.70
28763;DHT22;15918;51.270;6.522;2022-09-09T15:31:18;22.10;62.70
28763;DHT22;15918;51.270;6.522;2022-09-09T15:33:48;22.00;62.90
28763;DHT22;15918;51.270;6.522;2022-09-09T15:36:20;22.10;62.90
28763;DHT22;15918;51.270;6.522;2022-09-09T15:38:46;22.00;63.00
28763;DHT22;15918;51.270;6.522;2022-09-09T15:41:12;22.00;63.40
28763;DHT22;15918;51.270;6.522;2022-09-09T15:43:38;22.00;63.40
28763;DHT22;15918;51.270;6.522;2022-09-09T15:46:42;22.10;63.40
28763;DHT22;15918;51.270;6.522;2022-09-09T15:49:15;22.10;63.50
28763;DHT22;15918;51.270;6.522;2022-09-09T15:51:46;22.00;64.00
28763;DHT22;15918;51.270;6.522;2022-09-09T15:54:17;22.00;63.60
28763;DHT22;15918;51.270;6.522;2022-09-09T15:56:44;22.00;63.40
28763;DHT22;15918;51.270;6.522;2022-09-09T15:59:11;22.00;63.40
28763;DHT22;15918;51.270;6.522;2022-09-09T16:01:37;22.10;63.20
28763;DHT22;15918;51.270;6.522;2022-09-09T16:04:05;22.00;63.00
28763;DHT22;15918;51.270;6.522;2022-09-09T16:06:31;22.10;63.20
28763;DHT22;15918;51.270;6.522;2022-09-09T16:08:59;22.10;63.20
28763;DHT22;15918;51.270;6.522;2022-09-09T16:11:29;22.10;63.90
28763;DHT22;15918;51.270;6.522;2022-09-09T16:13:55;22.10;63.00
28763;DHT22;15918;51.270;6.522;2022-09-09T16:16:24;22.10;63.00
28763;DHT22;15918;51.270;6.522;2022-09-09T16:18:52;22.10;62.90
28763;DHT22;15918;51.270;6.522;2022-09-09T16:21:24;22.10;63.80
28763;DHT22;15918;51.270;6.522;2022-09-09T16:23:51;22.10;62.90
28763;DHT22;15918;51.270;6.522;2022-09-09T16:26:19;22.10;62.90
28763;DHT22;15918;51.270;6.522;2022-09-09T16:28:45;22.10;63.00
28763;DHT22;15918;51.270;6.522;2022-09-09T16:31:18;22.10;62.90
28763;DHT22;15918;51.270;6.522;2022-09-09T16:33:44;22.10;62.90
28763;DHT22;15918;51.270;6.522;2022-09-09T16:36:15;22.10;62.90
28763;DHT22;15918;51.270;6.522;2022-09-09T16:38:41;22.10;62.70
28763;DHT22;15918;51.270;6.522;2022-09-09T16:41:12;22.10;63.00
28763;DHT22;15918;51.270;6.522;2022-09-09T16:43:38;22.10;63.00
28763;DHT22;15918;51.270;6.522;2022-09-09T16:46:16;22.10;63.00
28763;DHT22;15918;51.270;6.522;2022-09-09T16:48:42;22.10;63.30
28763;DHT22;15918;51.270;6.522;2022-09-09T16:51:16;22.10;63.30
28763;DHT22;15918;51.270;6.522;2022-09-09T16:53:43;22.10;63.50
28763;DHT22;15918;51.270;6.522;2022-09-09T16:56:17;22.10;63.30
28763;DHT22;15918;51.270;6.522;2022-09-09T16:58:52;22.10;63.60
28763;DHT22;15918;51.270;6.522;2022-09-09T17:01:22;22.10;64.30
28763;DHT22;15918;51.270;6.522;2022-09-09T17:03:51;22.10;63.50
28763;DHT22;15918;51.270;6.522;2022-09-09T17:06:17;22.10;63.50
28763;DHT22;15918;51.270;6.522;2022-09-09T17:08:42;22.10;63.50
28763;DHT22;15918;51.270;6.522;2022-09-09T17:11:15;22.00;63.30
28763;DHT22;15918;51.270;6.522;2022-09-09T17:13:42;22.00;63.40
28763;DHT22;15918;51.270;6.522;2022-09-09T17:16:09;22.00;63.40
28763;DHT22;15918;51.270;6.522;2022-09-09T17:18:35;22.00;63.60
28763;DHT22;15918;51.270;6.522;2022-09-09T17:21:10;22.00;63.90
28763;DHT22;15918;51.270;6.522;2022-09-09T17:23:37;22.00;63.60
28763;DHT22;15918;51.270;6.522;2022-09-09T17:26:05;22.00;63.40
28763;DHT22;15918;51.270;6.522;2022-09-09T17:28:31;22.00;63.80
28763;DHT22;15918;51.270;6.522;2022-09-09T17:30:59;22.00;63.50
28763;DHT22;15918;51.270;6.522;2022-09-09T17:33:30;22.00;63.50
28763;DHT22;15918;51.270;6.522;2022-09-09T17:35:58;22.10;64.10
28763;DHT22;15918;51.270;6.522;2022-09-09T17:38:25;22.00;63.60
28763;DHT22;15918;51.270;6.522;2022-09-09T17:41:01;22.00;63.40
28763;DHT22;15918;51.270;6.522;2022-09-09T17:43:27;22.00;63.20
28763;DHT22;15918;51.270;6.522;2022-09-09T17:45:53;22.00;63.60
28763;DHT22;15918;51.270;6.522;2022-09-09T17:48:18;22.10;63.50
28763;DHT22;15918;51.270;6.522;2022-09-09T17:50:44;22.00;63.20
28763;DHT22;15918;51.270;6.522;2022-09-09T17:53:09;22.10;63.40